sensor_id;sensor_type;location;lat;lon;timestamp;P1;durP1;ratioP1;P2;durP2;ratioP2
23754;SDS011;12057;52.042;6.830;2022-12-18T00:01:44;139.70;;;35.72;;
23754;SDS011;12057;52.042;6.830;2022-12-18T00:06:45;131.27;;;37.10;;
23754;SDS011;12057;52.042;6.830;2022-12-18T00:11:46;142.20;;;33.92;;
23754;SDS011;12057;52.042;6.830;2022-12-18T00:16:46;152.90;;;40.42;;
23754;SDS011;12057;52.042;6.830;2022-12-18T00:21:47;160.73;;;39.13;;
23754;SDS011;12057;52.042;6.830;2022-12-18T00:26:48;143.63;;;38.08;;
23754;SDS011;12057;52.042;6.830;2022-12-18T00:31:49;120.47;;;33.42;;
23754;SDS011;12057;52.042;6.830;2022-12-18T00:36:49;138.25;;;35.45;;
23754;SDS011;12057;52.042;6.830;2022-12-18T00:41:50;156.07;;;41.45;;
23754;SDS011;12057;52.042;6.830;2022-12-18T00:47:09;146.18;;;36.58;;
23754;SDS011;12057;52.042;6.830;2022-12-18T00:52:10;139.52;;;35.75;;
23754;SDS011;12057;52.042;6.830;2022-12-18T00:57:11;157.45;;;41.05;;
23754;SDS011;12057;52.042;6.830;2022-12-18T01:02:15;129.95;;;32.85;;
23754;SDS011;12057;52.042;6.830;2022-12-18T01:07:15;146.13;;;35.50;;
23754;SDS011;12057;52.042;6.830;2022-12-18T01:12:16;120.65;;;31.70;;
23754;SDS011;12057;52.042;6.830;2022-12-18T01:17:17;111.78;;;30.85;;
23754;SDS011;12057;52.042;6.830;2022-12-18T01:22:18;141.02;;;33.97;;
23754;SDS011;12057;52.042;6.830;2022-12-18T01:27:18;128.20;;;30.77;;
23754;SDS011;12057;52.042;6.830;2022-12-18T01:32:19;118.95;;;30.80;;
23754;SDS011;12057;52.042;6.830;2022-12-18T01:37:20;124.30;;;31.08;;
23754;SDS011;12057;52.042;6.830;2022-12-18T01:42:21;123.13;;;29.17;;
23754;SDS011;12057;52.042;6.830;2022-12-18T01:52:28;109.15;;;29.05;;
23754;SDS011;12057;52.042;6.830;2022-12-18T01:57:33;102.35;;;27.13;;
23754;SDS011;12057;52.042;6.830;2022-12-18T02:02:34;106.05;;;29.05;;
23754;SDS011;12057;52.042;6.830;2022-12-18T02:18:24;93.60;;;26.20;;
23754;SDS011;12057;52.042;6.830;2022-12-18T02:29:04;92.77;;;28.10;;
23754;SDS011;12057;52.042;6.830;2022-12-18T02:34:12;97.10;;;28.73;;
23754;SDS011;12057;52.042;6.830;2022-12-18T02:39:14;95.93;;;26.67;;
23754;SDS011;12057;52.042;6.830;2022-12-18T02:44:16;86.68;;;25.55;;
23754;SDS011;12057;52.042;6.830;2022-12-18T02:49:22;96.28;;;25.23;;
23754;SDS011;12057;52.042;6.830;2022-12-18T03:05:12;86.18;;;25.08;;
23754;SDS011;12057;52.042;6.830;2022-12-18T03:10:19;81.88;;;23.80;;
23754;SDS011;12057;52.042;6.830;2022-12-18T03:15:28;100.53;;;24.45;;
23754;SDS011;12057;52.042;6.830;2022-12-18T03:20:32;74.97;;;24.13;;
23754;SDS011;12057;52.042;6.830;2022-12-18T03:25:35;98.32;;;25.85;;
23754;SDS011;12057;52.042;6.830;2022-12-18T03:30:41;70.22;;;23.20;;
23754;SDS011;12057;52.042;6.830;2022-12-18T03:35:46;75.65;;;23.13;;
23754;SDS011;12057;52.042;6.830;2022-12-18T03:46:02;67.10;;;20.90;;
23754;SDS011;12057;52.042;6.830;2022-12-18T03:51:48;70.97;;;22.00;;
23754;SDS011;12057;52.042;6.830;2022-12-18T03:56:59;65.40;;;19.83;;
23754;SDS011;12057;52.042;6.830;2022-12-18T04:02:04;78.55;;;23.40;;
23754;SDS011;12057;52.042;6.830;2022-12-18T04:07:08;79.00;;;23.42;;
23754;SDS011;12057;52.042;6.830;2022-12-18T04:12:09;84.95;;;25.35;;
23754;SDS011;12057;52.042;6.830;2022-12-18T04:17:10;76.18;;;23.80;;
23754;SDS011;12057;52.042;6.830;2022-12-18T04:22:11;73.82;;;22.45;;
23754;SDS011;12057;52.042;6.830;2022-12-18T04:27:12;82.05;;;23.05;;
23754;SDS011;12057;52.042;6.830;2022-12-18T04:32:12;74.80;;;25.05;;
23754;SDS011;12057;52.042;6.830;2022-12-18T04:37:13;66.47;;;20.85;;
23754;SDS011;12057;52.042;6.830;2022-12-18T04:42:14;53.03;;;17.85;;
23754;SDS011;12057;52.042;6.830;2022-12-18T04:47:15;56.95;;;18.77;;
23754;SDS011;12057;52.042;6.830;2022-12-18T04:52:15;60.65;;;18.98;;
23754;SDS011;12057;52.042;6.830;2022-12-18T04:57:16;54.30;;;20.73;;
23754;SDS011;12057;52.042;6.830;2022-12-18T05:02:18;65.40;;;20.27;;
23754;SDS011;12057;52.042;6.830;2022-12-18T05:07:18;59.78;;;19.77;;
23754;SDS011;12057;52.042;6.830;2022-12-18T05:12:19;61.20;;;17.77;;
23754;SDS011;12057;52.042;6.830;2022-12-18T05:17:20;59.17;;;19.05;;
23754;SDS011;12057;52.042;6.830;2022-12-18T05:22:21;66.47;;;18.52;;
23754;SDS011;12057;52.042;6.830;2022-12-18T05:27:21;53.10;;;17.63;;
23754;SDS011;12057;52.042;6.830;2022-12-18T05:32:22;64.55;;;18.80;;
23754;SDS011;12057;52.042;6.830;2022-12-18T05:37:23;54.47;;;15.88;;
23754;SDS011;12057;52.042;6.830;2022-12-18T05:42:24;51.33;;;17.10;;
23754;SDS011;12057;52.042;6.830;2022-12-18T05:47:24;51.35;;;16.75;;
23754;SDS011;12057;52.042;6.830;2022-12-18T05:52:26;44.50;;;15.10;;
23754;SDS011;12057;52.042;6.830;2022-12-18T05:57:27;52.67;;;17.33;;
23754;SDS011;12057;52.042;6.830;2022-12-18T06:02:28;44.75;;;14.50;;
23754;SDS011;12057;52.042;6.830;2022-12-18T06:07:29;52.58;;;14.77;;
23754;SDS011;12057;52.042;6.830;2022-12-18T06:12:29;44.80;;;14.75;;
23754;SDS011;12057;52.042;6.830;2022-12-18T06:17:31;47.10;;;15.68;;
23754;SDS011;12057;52.042;6.830;2022-12-18T06:22:32;38.03;;;13.82;;
23754;SDS011;12057;52.042;6.830;2022-12-18T06:27:33;45.30;;;16.40;;
23754;SDS011;12057;52.042;6.830;2022-12-18T06:32:34;47.75;;;16.55;;
23754;SDS011;12057;52.042;6.830;2022-12-18T06:37:35;45.40;;;14.05;;
23754;SDS011;12057;52.042;6.830;2022-12-18T06:42:35;43.88;;;13.95;;
23754;SDS011;12057;52.042;6.830;2022-12-18T06:47:36;48.90;;;16.00;;
23754;SDS011;12057;52.042;6.830;2022-12-18T06:52:37;35.78;;;13.52;;
23754;SDS011;12057;52.042;6.830;2022-12-18T06:57:39;42.72;;;15.05;;
23754;SDS011;12057;52.042;6.830;2022-12-18T07:02:40;49.97;;;14.15;;
23754;SDS011;12057;52.042;6.830;2022-12-18T07:07:43;42.20;;;15.25;;
23754;SDS011;12057;52.042;6.830;2022-12-18T07:12:44;37.33;;;13.55;;
23754;SDS011;12057;52.042;6.830;2022-12-18T07:17:45;36.40;;;13.77;;
23754;SDS011;12057;52.042;6.830;2022-12-18T07:22:49;38.95;;;13.18;;
23754;SDS011;12057;52.042;6.830;2022-12-18T07:27:53;34.53;;;12.57;;
23754;SDS011;12057;52.042;6.830;2022-12-18T07:32:56;45.97;;;16.55;;
23754;SDS011;12057;52.042;6.830;2022-12-18T07:38:02;57.03;;;15.20;;
23754;SDS011;12057;52.042;6.830;2022-12-18T07:43:09;36.30;;;13.45;;
23754;SDS011;12057;52.042;6.830;2022-12-18T07:48:18;42.40;;;15.68;;
23754;SDS011;12057;52.042;6.830;2022-12-18T07:53:19;43.80;;;14.50;;
23754;SDS011;12057;52.042;6.830;2022-12-18T07:58:30;39.72;;;16.33;;
23754;SDS011;12057;52.042;6.830;2022-12-18T08:03:38;38.63;;;14.77;;
23754;SDS011;12057;52.042;6.830;2022-12-18T08:08:42;52.25;;;20.40;;
23754;SDS011;12057;52.042;6.830;2022-12-18T08:13:46;46.10;;;17.13;;
23754;SDS011;12057;52.042;6.830;2022-12-18T08:18:49;47.70;;;15.48;;
23754;SDS011;12057;52.042;6.830;2022-12-18T08:23:57;54.10;;;19.50;;
23754;SDS011;12057;52.042;6.830;2022-12-18T08:29:03;37.77;;;13.87;;
23754;SDS011;12057;52.042;6.830;2022-12-18T08:34:07;48.53;;;18.55;;
23754;SDS011;12057;52.042;6.830;2022-12-18T08:39:18;34.30;;;14.75;;
23754;SDS011;12057;52.042;6.830;2022-12-18T08:44:20;30.30;;;12.27;;
23754;SDS011;12057;52.042;6.830;2022-12-18T08:49:54;54.30;;;16.55;;
23754;SDS011;12057;52.042;6.830;2022-12-18T08:54:55;43.88;;;12.82;;
23754;SDS011;12057;52.042;6.830;2022-12-18T08:59:55;32.53;;;12.50;;
23754;SDS011;12057;52.042;6.830;2022-12-18T09:04:56;29.42;;;10.60;;
23754;SDS011;12057;52.042;6.830;2022-12-18T09:10:00;40.05;;;14.10;;
23754;SDS011;12057;52.042;6.830;2022-12-18T09:15:01;37.88;;;11.32;;
23754;SDS011;12057;52.042;6.830;2022-12-18T09:20:02;25.23;;;9.75;;
23754;SDS011;12057;52.042;6.830;2022-12-18T09:25:03;22.25;;;10.10;;
23754;SDS011;12057;52.042;6.830;2022-12-18T09:30:04;29.23;;;10.45;;
23754;SDS011;12057;52.042;6.830;2022-12-18T09:35:06;25.27;;;9.45;;
23754;SDS011;12057;52.042;6.830;2022-12-18T09:40:09;26.17;;;10.10;;
23754;SDS011;12057;52.042;6.830;2022-12-18T09:45:19;31.75;;;9.57;;
23754;SDS011;12057;52.042;6.830;2022-12-18T09:55:39;26.30;;;8.55;;
23754;SDS011;12057;52.042;6.830;2022-12-18T10:00:41;20.85;;;8.65;;
23754;SDS011;12057;52.042;6.830;2022-12-18T10:11:48;20.42;;;8.07;;
23754;SDS011;12057;52.042;6.830;2022-12-18T10:27:55;25.90;;;8.32;;
23754;SDS011;12057;52.042;6.830;2022-12-18T10:33:02;26.67;;;8.15;;
23754;SDS011;12057;52.042;6.830;2022-12-18T10:38:07;25.38;;;7.85;;
23754;SDS011;12057;52.042;6.830;2022-12-18T10:43:23;20.48;;;7.13;;
23754;SDS011;12057;52.042;6.830;2022-12-18T10:48:29;22.80;;;7.13;;
23754;SDS011;12057;52.042;6.830;2022-12-18T10:53:33;15.55;;;6.63;;
23754;SDS011;12057;52.042;6.830;2022-12-18T10:58:37;21.80;;;7.13;;
23754;SDS011;12057;52.042;6.830;2022-12-18T11:08:46;22.75;;;6.70;;
23754;SDS011;12057;52.042;6.830;2022-12-18T11:14:42;18.83;;;7.65;;
23754;SDS011;12057;52.042;6.830;2022-12-18T11:19:56;20.27;;;7.57;;
23754;SDS011;12057;52.042;6.830;2022-12-18T11:25:01;17.55;;;6.55;;
23754;SDS011;12057;52.042;6.830;2022-12-18T11:46:52;17.27;;;7.35;;
23754;SDS011;12057;52.042;6.830;2022-12-18T11:52:04;20.15;;;6.60;;
23754;SDS011;12057;52.042;6.830;2022-12-18T12:02:42;20.52;;;7.10;;
23754;SDS011;12057;52.042;6.830;2022-12-18T12:24:17;15.73;;;7.10;;
23754;SDS011;12057;52.042;6.830;2022-12-18T12:41:01;22.35;;;7.88;;
23754;SDS011;12057;52.042;6.830;2022-12-18T12:46:29;14.18;;;6.47;;
23754;SDS011;12057;52.042;6.830;2022-12-18T12:51:42;17.95;;;6.38;;
23754;SDS011;12057;52.042;6.830;2022-12-18T13:08:06;13.18;;;5.72;;
23754;SDS011;12057;52.042;6.830;2022-12-18T13:13:15;16.70;;;7.05;;
23754;SDS011;12057;52.042;6.830;2022-12-18T13:18:24;17.73;;;6.68;;
23754;SDS011;12057;52.042;6.830;2022-12-18T13:23:42;16.20;;;6.30;;
23754;SDS011;12057;52.042;6.830;2022-12-18T13:29:48;17.43;;;6.67;;
23754;SDS011;12057;52.042;6.830;2022-12-18T13:46:00;19.73;;;7.07;;
23754;SDS011;12057;52.042;6.830;2022-12-18T13:51:44;17.48;;;7.38;;
23754;SDS011;12057;52.042;6.830;2022-12-18T13:56:54;22.33;;;6.75;;
23754;SDS011;12057;52.042;6.830;2022-12-18T14:02:26;19.77;;;7.90;;
23754;SDS011;12057;52.042;6.830;2022-12-18T14:07:30;17.13;;;6.93;;
23754;SDS011;12057;52.042;6.830;2022-12-18T14:12:33;18.00;;;7.85;;
23754;SDS011;12057;52.042;6.830;2022-12-18T14:17:55;16.55;;;6.68;;
23754;SDS011;12057;52.042;6.830;2022-12-18T14:23:04;17.00;;;7.13;;
23754;SDS011;12057;52.042;6.830;2022-12-18T14:28:12;14.30;;;6.57;;
23754;SDS011;12057;52.042;6.830;2022-12-18T14:33:22;27.23;;;10.63;;
23754;SDS011;12057;52.042;6.830;2022-12-18T14:38:30;27.80;;;7.55;;
23754;SDS011;12057;52.042;6.830;2022-12-18T14:43:34;29.20;;;7.78;;
23754;SDS011;12057;52.042;6.830;2022-12-18T14:53:45;19.10;;;7.45;;
23754;SDS011;12057;52.042;6.830;2022-12-18T14:58:48;19.27;;;7.70;;
23754;SDS011;12057;52.042;6.830;2022-12-18T15:03:52;19.48;;;7.72;;
23754;SDS011;12057;52.042;6.830;2022-12-18T15:08:54;21.33;;;7.35;;
23754;SDS011;12057;52.042;6.830;2022-12-18T15:13:57;28.13;;;8.57;;
23754;SDS011;12057;52.042;6.830;2022-12-18T15:18:58;36.72;;;13.80;;
23754;SDS011;12057;52.042;6.830;2022-12-18T15:24:01;28.15;;;9.40;;
23754;SDS011;12057;52.042;6.830;2022-12-18T15:29:02;26.02;;;9.60;;
23754;SDS011;12057;52.042;6.830;2022-12-18T15:34:14;27.30;;;9.68;;
23754;SDS011;12057;52.042;6.830;2022-12-18T15:39:20;26.13;;;9.65;;
23754;SDS011;12057;52.042;6.830;2022-12-18T15:44:22;27.70;;;9.20;;
23754;SDS011;12057;52.042;6.830;2022-12-18T15:49:24;21.40;;;9.75;;
23754;SDS011;12057;52.042;6.830;2022-12-18T15:54:24;45.63;;;14.45;;
23754;SDS011;12057;52.042;6.830;2022-12-18T15:59:44;40.20;;;15.82;;
23754;SDS011;12057;52.042;6.830;2022-12-18T16:04:45;30.60;;;10.45;;
23754;SDS011;12057;52.042;6.830;2022-12-18T16:09:47;28.08;;;12.60;;
23754;SDS011;12057;52.042;6.830;2022-12-18T16:14:48;26.90;;;11.60;;
23754;SDS011;12057;52.042;6.830;2022-12-18T16:19:48;38.08;;;12.93;;
23754;SDS011;12057;52.042;6.830;2022-12-18T16:29:51;47.40;;;11.98;;
23754;SDS011;12057;52.042;6.830;2022-12-18T16:39:52;32.63;;;13.67;;
23754;SDS011;12057;52.042;6.830;2022-12-18T16:44:53;27.92;;;11.90;;
23754;SDS011;12057;52.042;6.830;2022-12-18T16:54:54;35.27;;;13.63;;
23754;SDS011;12057;52.042;6.830;2022-12-18T16:59:55;33.65;;;12.55;;
23754;SDS011;12057;52.042;6.830;2022-12-18T17:04:56;49.92;;;13.25;;
23754;SDS011;12057;52.042;6.830;2022-12-18T17:09:58;33.25;;;12.85;;
23754;SDS011;12057;52.042;6.830;2022-12-18T17:14:58;49.08;;;17.02;;
23754;SDS011;12057;52.042;6.830;2022-12-18T17:25:00;28.37;;;13.10;;
23754;SDS011;12057;52.042;6.830;2022-12-18T17:30:01;32.38;;;12.00;;
23754;SDS011;12057;52.042;6.830;2022-12-18T17:35:03;32.72;;;11.57;;
23754;SDS011;12057;52.042;6.830;2022-12-18T17:40:04;32.13;;;10.88;;
23754;SDS011;12057;52.042;6.830;2022-12-18T17:45:05;31.20;;;12.18;;
23754;SDS011;12057;52.042;6.830;2022-12-18T17:50:07;43.15;;;15.30;;
23754;SDS011;12057;52.042;6.830;2022-12-18T18:00:09;30.40;;;12.60;;
23754;SDS011;12057;52.042;6.830;2022-12-18T18:05:10;41.38;;;15.30;;
23754;SDS011;12057;52.042;6.830;2022-12-18T18:10:12;36.90;;;13.52;;
23754;SDS011;12057;52.042;6.830;2022-12-18T18:15:12;77.65;;;29.02;;
23754;SDS011;12057;52.042;6.830;2022-12-18T18:20:13;42.05;;;15.43;;
23754;SDS011;12057;52.042;6.830;2022-12-18T18:25:15;41.45;;;14.85;;
23754;SDS011;12057;52.042;6.830;2022-12-18T18:30:16;70.63;;;23.08;;
23754;SDS011;12057;52.042;6.830;2022-12-18T18:35:17;78.90;;;22.02;;
23754;SDS011;12057;52.042;6.830;2022-12-18T18:45:20;36.60;;;15.15;;
23754;SDS011;12057;52.042;6.830;2022-12-18T18:50:21;38.30;;;15.02;;
23754;SDS011;12057;52.042;6.830;2022-12-18T18:55:21;39.70;;;14.93;;
23754;SDS011;12057;52.042;6.830;2022-12-18T19:00:22;55.30;;;17.92;;
23754;SDS011;12057;52.042;6.830;2022-12-18T19:05:23;50.83;;;16.90;;
23754;SDS011;12057;52.042;6.830;2022-12-18T19:10:27;62.92;;;21.95;;
23754;SDS011;12057;52.042;6.830;2022-12-18T19:15:27;55.97;;;19.70;;
23754;SDS011;12057;52.042;6.830;2022-12-18T19:20:28;61.08;;;23.48;;
23754;SDS011;12057;52.042;6.830;2022-12-18T19:30:31;51.28;;;18.38;;
23754;SDS011;12057;52.042;6.830;2022-12-18T19:35:38;47.75;;;19.83;;
23754;SDS011;12057;52.042;6.830;2022-12-18T19:40:39;55.63;;;18.60;;
23754;SDS011;12057;52.042;6.830;2022-12-18T19:45:40;55.20;;;21.38;;
23754;SDS011;12057;52.042;6.830;2022-12-18T19:50:41;60.13;;;20.30;;
23754;SDS011;12057;52.042;6.830;2022-12-18T19:55:42;58.70;;;20.50;;
23754;SDS011;12057;52.042;6.830;2022-12-18T20:05:47;68.37;;;24.20;;
23754;SDS011;12057;52.042;6.830;2022-12-18T20:10:50;74.90;;;24.70;;
23754;SDS011;12057;52.042;6.830;2022-12-18T20:15:51;70.35;;;24.08;;
23754;SDS011;12057;52.042;6.830;2022-12-18T20:20:52;75.97;;;24.20;;
23754;SDS011;12057;52.042;6.830;2022-12-18T20:30:57;56.42;;;20.38;;
23754;SDS011;12057;52.042;6.830;2022-12-18T20:36:06;60.17;;;21.65;;
23754;SDS011;12057;52.042;6.830;2022-12-18T20:41:18;62.42;;;20.02;;
23754;SDS011;12057;52.042;6.830;2022-12-18T20:46:22;55.80;;;20.63;;
23754;SDS011;12057;52.042;6.830;2022-12-18T20:51:26;57.63;;;21.77;;
23754;SDS011;12057;52.042;6.830;2022-12-18T20:56:28;64.60;;;22.50;;
23754;SDS011;12057;52.042;6.830;2022-12-18T21:01:29;66.80;;;20.77;;
23754;SDS011;12057;52.042;6.830;2022-12-18T21:06:30;59.67;;;19.77;;
23754;SDS011;12057;52.042;6.830;2022-12-18T21:11:31;61.65;;;21.08;;
23754;SDS011;12057;52.042;6.830;2022-12-18T21:16:54;61.50;;;20.77;;
23754;SDS011;12057;52.042;6.830;2022-12-18T21:21:59;58.55;;;21.17;;
23754;SDS011;12057;52.042;6.830;2022-12-18T21:27:00;74.35;;;21.33;;
23754;SDS011;12057;52.042;6.830;2022-12-18T21:32:01;71.53;;;23.08;;
23754;SDS011;12057;52.042;6.830;2022-12-18T21:37:03;63.15;;;23.02;;
23754;SDS011;12057;52.042;6.830;2022-12-18T21:42:04;73.68;;;22.92;;
23754;SDS011;12057;52.042;6.830;2022-12-18T21:47:23;59.83;;;21.15;;
23754;SDS011;12057;52.042;6.830;2022-12-18T21:52:24;81.18;;;25.17;;
23754;SDS011;12057;52.042;6.830;2022-12-18T21:57:25;75.35;;;23.52;;
23754;SDS011;12057;52.042;6.830;2022-12-18T22:02:25;67.18;;;22.40;;
23754;SDS011;12057;52.042;6.830;2022-12-18T22:07:26;73.85;;;23.60;;
23754;SDS011;12057;52.042;6.830;2022-12-18T22:12:28;75.65;;;23.58;;
23754;SDS011;12057;52.042;6.830;2022-12-18T22:17:34;78.28;;;24.52;;
23754;SDS011;12057;52.042;6.830;2022-12-18T22:22:35;67.93;;;22.10;;
23754;SDS011;12057;52.042;6.830;2022-12-18T22:27:36;67.13;;;21.95;;
23754;SDS011;12057;52.042;6.830;2022-12-18T22:32:37;67.10;;;23.15;;
23754;SDS011;12057;52.042;6.830;2022-12-18T22:37:38;69.18;;;23.92;;
23754;SDS011;12057;52.042;6.830;2022-12-18T22:42:38;67.95;;;21.65;;
23754;SDS011;12057;52.042;6.830;2022-12-18T22:47:39;68.60;;;24.00;;
23754;SDS011;12057;52.042;6.830;2022-12-18T22:52:40;72.57;;;23.33;;
23754;SDS011;12057;52.042;6.830;2022-12-18T22:57:41;69.15;;;21.88;;
23754;SDS011;12057;52.042;6.830;2022-12-18T23:02:42;68.32;;;22.85;;
23754;SDS011;12057;52.042;6.830;2022-12-18T23:07:42;73.05;;;23.83;;
23754;SDS011;12057;52.042;6.830;2022-12-18T23:12:43;68.78;;;23.13;;
23754;SDS011;12057;52.042;6.830;2022-12-18T23:17:44;66.80;;;24.38;;
23754;SDS011;12057;52.042;6.830;2022-12-18T23:22:45;73.88;;;26.58;;
23754;SDS011;12057;52.042;6.830;2022-12-18T23:27:45;62.55;;;22.52;;
23754;SDS011;12057;52.042;6.830;2022-12-18T23:32:46;68.22;;;22.70;;
23754;SDS011;12057;52.042;6.830;2022-12-18T23:37:47;68.82;;;22.63;;
23754;SDS011;12057;52.042;6.830;2022-12-18T23:42:48;67.35;;;22.20;;
23754;SDS011;12057;52.042;6.830;2022-12-18T23:47:49;74.40;;;22.65;;
23754;SDS011;12057;52.042;6.830;2022-12-18T23:52:50;57.60;;;22.27;;
23754;SDS011;12057;52.042;6.830;2022-12-18T23:57:50;70.38;;;24.48;;
